Time;durP1;ratioP1;P1;durP2;ratioP2;P2;SDS_P1;SDS_P2;PMS_P1;PMS_P2;Temp;Humidity;BMP_temperature;BMP_pressure;BME280_temperature;BME280_humidity;BME280_pressure;Samples;Min_cycle;Max_cycle;Signal;HPM_P1;HPM_P2
2021/01/08 00:01:04;;;;;;;1.40;0.70;;;8.40;99.90;;;;;;6096603;23;20537;-87
2021/01/08 00:03:35;;;;;;;0.63;0.63;;;8.30;99.90;;;;;;6097851;23;20236;-88
2021/01/08 00:06:07;;;;;;;0.83;0.67;;;8.30;99.90;;;;;;6099729;23;20249;-86
2021/01/08 00:08:37;;;;;;;0.80;0.80;;;8.30;99.90;;;;;;6103361;23;20253;-88
2021/01/08 00:11:10;;;;;;;0.63;0.60;;;8.20;99.90;;;;;;6097643;23;20563;-88
2021/01/08 00:13:40;;;;;;;2.13;0.97;;;8.10;99.90;;;;;;6098593;23;20174;-88
2021/01/08 00:16:12;;;;;;;1.43;0.97;;;8.00;99.90;;;;;;6100538;23;20192;-88
2021/01/08 00:18:43;;;;;;;1.27;0.80;;;8.00;99.90;;;;;;6098399;23;20574;-88
2021/01/08 00:21:15;;;;;;;2.03;1.10;;;8.00;99.90;;;;;;6099162;23;20181;-87
2021/01/08 00:23:49;;;;;;;1.70;1.13;;;7.90;99.90;;;;;;6098819;23;20228;-88
2021/01/08 00:26:25;;;;;;;2.00;0.73;;;7.80;99.90;;;;;;6102447;23;20186;-88
2021/01/08 00:28:56;;;;;;;3.00;0.93;;;7.70;99.90;;;;;;6099414;23;20170;-87
2021/01/08 00:31:27;;;;;;;1.37;0.93;;;7.60;99.90;;;;;;6099498;23;20182;-88
2021/01/08 00:33:58;;;;;;;1.93;0.90;;;7.60;99.90;;;;;;6098406;23;20181;-88
2021/01/08 00:36:29;;;;;;;9.07;1.30;;;7.50;99.90;;;;;;6100551;23;20285;-87
2021/01/08 00:38:59;;;;;;;1.00;0.77;;;7.40;99.90;;;;;;6101002;23;20197;-87
2021/01/08 00:41:35;;;;;;;2.33;1.00;;;7.30;99.90;;;;;;6100162;23;20183;-86
2021/01/08 00:44:06;;;;;;;3.13;0.90;;;7.30;99.90;;;;;;6099705;23;20179;-86
2021/01/08 00:46:37;;;;;;;1.93;1.00;;;7.20;99.90;;;;;;6103965;23;20175;-87
2021/01/08 00:49:11;;;;;;;1.37;1.10;;;7.10;99.90;;;;;;6105115;23;20199;-87
2021/01/08 00:51:44;;;;;;;1.33;1.10;;;7.00;99.90;;;;;;6108180;23;20269;-87
2021/01/08 00:54:13;;;;;;;1.70;1.00;;;6.90;99.90;;;;;;6119428;23;20191;-87
2021/01/08 00:56:44;;;;;;;2.07;1.07;;;6.80;99.90;;;;;;6121114;23;20202;-86
2021/01/08 00:59:15;;;;;;;2.23;1.10;;;6.80;99.90;;;;;;6118199;23;20203;-86
2021/01/08 01:01:46;;;;;;;1.17;1.00;;;6.70;99.90;;;;;;6076007;23;20188;-87
2021/01/08 01:04:17;;;;;;;1.00;0.80;;;6.70;99.90;;;;;;6074969;23;20246;-86
2021/01/08 01:06:48;;;;;;;0.93;0.83;;;6.60;99.90;;;;;;6103251;23;20178;-89
2021/01/08 01:09:18;;;;;;;2.10;1.03;;;6.60;99.90;;;;;;6099341;23;20202;-89
2021/01/08 01:11:51;;;;;;;1.80;1.10;;;6.60;99.90;;;;;;6099543;23;20193;-89
2021/01/08 01:14:22;;;;;;;1.70;0.90;;;6.60;99.90;;;;;;6098461;23;20250;-88
2021/01/08 01:16:57;;;;;;;1.10;0.83;;;6.60;99.90;;;;;;6099699;23;20530;-86
2021/01/08 01:19:28;;;;;;;1.30;0.90;;;6.50;99.90;;;;;;6099405;23;20577;-86
2021/01/08 01:21:59;;;;;;;2.17;1.00;;;6.40;99.90;;;;;;6102245;23;20201;-87
2021/01/08 01:24:28;;;;;;;1.13;0.90;;;6.40;99.90;;;;;;6116683;23;20281;-88
2021/01/08 01:27:00;;;;;;;1.47;0.80;;;6.30;99.90;;;;;;6120379;23;20214;-87
2021/01/08 01:29:30;;;;;;;1.97;1.27;;;6.30;99.90;;;;;;6116369;23;20174;-86
2021/01/08 01:32:00;;;;;;;0.90;0.80;;;6.30;99.90;;;;;;6105729;23;20183;-87
2021/01/08 01:34:30;;;;;;;0.80;0.80;;;6.20;99.90;;;;;;6099895;23;20179;-86
2021/01/08 01:37:01;;;;;;;1.03;0.93;;;6.20;99.90;;;;;;6074666;23;20233;-86
2021/01/08 01:39:32;;;;;;;1.70;1.20;;;6.20;99.90;;;;;;6073353;23;20724;-87
2021/01/08 01:42:04;;;;;;;2.87;1.60;;;6.20;99.90;;;;;;6099779;23;20191;-86
2021/01/08 01:44:35;;;;;;;4.97;2.37;;;6.20;99.90;;;;;;6100564;23;20175;-86
2021/01/08 01:47:06;;;;;;;3.37;1.70;;;6.30;99.90;;;;;;6100268;23;20250;-92
2021/01/08 01:49:39;;;;;;;2.33;1.53;;;6.30;99.90;;;;;;6110975;23;20660;-92
2021/01/08 01:52:11;;;;;;;2.87;1.20;;;6.30;99.90;;;;;;6106106;23;20195;-94
2021/01/08 01:54:41;;;;;;;1.73;1.00;;;6.30;99.90;;;;;;6103700;23;20202;-93
2021/01/08 01:57:16;;;;;;;1.23;0.80;;;6.30;99.90;;;;;;6105339;23;20234;-92
2021/01/08 01:59:46;;;;;;;0.57;0.40;;;6.40;99.90;;;;;;6106008;23;20202;-90
2021/01/08 02:02:23;;;;;;;0.50;0.50;;;6.50;99.90;;;;;;6101660;23;20206;-93
2021/01/08 02:04:55;;;;;;;0.43;0.37;;;6.60;99.90;;;;;;6101208;23;20237;-94
2021/01/08 02:07:32;;;;;;;0.50;0.40;;;6.80;99.90;;;;;;6103447;23;20186;-95
2021/01/08 02:10:13;;;;;;;0.87;0.30;;;7.00;99.90;;;;;;6100755;23;20255;-93
2021/01/08 02:12:47;;;;;;;1.37;0.87;;;7.00;99.90;;;;;;6102221;23;20171;-93
2021/01/08 02:15:18;;;;;;;1.63;1.10;;;7.00;99.90;;;;;;6102038;23;20195;-92
2021/01/08 02:17:50;;;;;;;3.67;1.73;;;7.20;99.90;;;;;;6102618;23;20179;-96
2021/01/08 02:20:26;;;;;;;6.47;3.07;;;7.20;99.90;;;;;;6102129;23;20511;-94
2021/01/08 02:23:03;;;;;;;6.30;2.90;;;7.10;99.90;;;;;;6098807;23;20199;-93
2021/01/08 02:25:37;;;;;;;3.83;2.10;;;7.10;99.90;;;;;;6102666;23;20179;-93
2021/01/08 02:28:25;;;;;;;2.90;1.40;;;7.20;99.90;;;;;;6106169;23;20193;-94
2021/01/08 02:30:56;;;;;;;2.80;1.40;;;7.20;99.90;;;;;;6103875;23;20183;-90
2021/01/08 02:33:28;;;;;;;1.17;0.67;;;7.20;99.90;;;;;;6100943;23;20185;-92
2021/01/08 02:36:02;;;;;;;0.57;0.50;;;7.20;99.90;;;;;;6109233;23;20179;-96
2021/01/08 02:38:36;;;;;;;1.97;0.93;;;7.20;99.90;;;;;;6106217;23;20178;-93
2021/01/08 02:41:11;;;;;;;0.90;0.77;;;7.20;99.90;;;;;;6105699;23;20266;-95
2021/01/08 02:43:46;;;;;;;0.67;0.50;;;7.10;99.90;;;;;;6104704;23;20215;-95
2021/01/08 02:46:17;;;;;;;0.50;0.50;;;7.00;99.90;;;;;;6104086;23;20189;-93
2021/01/08 02:48:48;;;;;;;0.40;0.27;;;6.90;99.90;;;;;;6106107;23;20175;-94
2021/01/08 02:51:22;;;;;;;1.33;0.70;;;6.90;99.90;;;;;;6103023;23;20278;-95
2021/01/08 02:53:53;;;;;;;2.53;1.50;;;6.90;99.90;;;;;;6080224;23;20183;-93
2021/01/08 02:56:30;;;;;;;1.33;0.90;;;6.90;99.90;;;;;;6104642;23;20187;-93
2021/01/08 02:59:01;;;;;;;2.77;1.90;;;6.80;99.90;;;;;;6082255;23;20592;-94
2021/01/08 03:01:36;;;;;;;5.67;3.63;;;6.80;99.90;;;;;;6111633;23;20216;-96
2021/01/08 03:04:14;;;;;;;6.83;3.47;;;6.80;99.90;;;;;;6117321;23;20209;-96
2021/01/08 03:06:47;;;;;;;5.07;2.67;;;6.90;99.90;;;;;;6113016;23;20574;-96
2021/01/08 03:09:19;;;;;;;2.73;1.30;;;7.20;99.90;;;;;;6116153;23;20242;-96
2021/01/08 03:12:07;;;;;;;1.60;0.80;;;7.20;99.90;;;;;;6120775;23;20178;-96
2021/01/08 03:14:40;;;;;;;1.33;0.80;;;7.20;99.90;;;;;;6120386;23;20179;-96
2021/01/08 03:17:12;;;;;;;1.00;0.70;;;7.20;99.90;;;;;;6120396;23;20172;-96
2021/01/08 03:19:50;;;;;;;1.03;0.90;;;7.20;99.90;;;;;;6119295;23;20186;-95
2021/01/08 03:22:24;;;;;;;7.67;4.87;;;7.20;99.90;;;;;;6115988;23;20191;-93
2021/01/08 03:25:10;;;;;;;1.23;0.50;;;7.30;99.90;;;;;;6121600;23;20240;-96
2021/01/08 03:38:38;;;;;;;0.67;0.50;;;7.50;99.90;;;;;;6150560;23;20224;-96
2021/01/08 03:41:11;;;;;;;1.57;1.03;;;7.40;99.90;;;;;;6101397;23;20247;-95
2021/01/08 03:43:42;;;;;;;1.63;0.87;;;7.40;99.90;;;;;;6151282;23;20190;-96
2021/01/08 03:46:13;;;;;;;0.90;0.50;;;7.40;99.90;;;;;;6122923;23;20183;-96
2021/01/08 03:48:44;;;;;;;0.60;0.50;;;7.30;99.90;;;;;;6122843;23;20186;-96
2021/01/08 03:51:21;;;;;;;1.00;0.60;;;7.40;99.90;;;;;;6120485;23;20175;-96
2021/01/08 03:54:05;;;;;;;;;;;;;;;;;;;;;
2021/01/08 03:56:41;;;;;;;0.50;0.40;;;7.40;99.90;;;;;;6114118;23;20179;-95
2021/01/08 03:59:12;;;;;;;0.40;0.30;;;7.60;99.90;;;;;;6114326;23;20189;-96
2021/01/08 04:01:43;;;;;;;0.50;0.40;;;7.60;99.90;;;;;;6116526;23;20201;-96
2021/01/08 04:04:14;;;;;;;0.50;0.40;;;7.70;99.90;;;;;;6118072;23;20210;-96
2021/01/08 04:06:46;;;;;;;0.60;0.40;;;7.80;99.90;;;;;;6117659;23;20213;-96
2021/01/08 04:09:22;;;;;;;1.77;0.40;;;7.90;99.90;;;;;;6117294;23;20198;-96
2021/01/08 04:11:53;;;;;;;0.30;0.30;;;8.00;99.90;;;;;;6117084;23;20168;-96
2021/01/08 04:14:28;;;;;;;0.50;0.20;;;7.90;99.90;;;;;;6117904;23;20170;-96
2021/01/08 04:17:00;;;;;;;0.33;0.33;;;7.90;99.90;;;;;;6118832;23;20176;-96
2021/01/08 04:19:31;;;;;;;0.60;0.20;;;8.00;99.90;;;;;;6118013;23;20179;-96
2021/01/08 04:22:03;;;;;;;0.40;0.37;;;7.90;99.90;;;;;;6117271;23;20210;-96
2021/01/08 04:24:35;;;;;;;0.67;0.30;;;7.90;99.90;;;;;;6120649;23;20166;-97
2021/01/08 04:27:07;;;;;;;0.30;0.20;;;8.00;99.90;;;;;;6116637;23;20186;-96
2021/01/08 04:29:38;;;;;;;0.20;0.20;;;8.00;99.90;;;;;;6116914;23;20230;-96
2021/01/08 04:32:09;;;;;;;0.20;0.20;;;8.00;99.90;;;;;;6116533;23;20183;-96
2021/01/08 04:34:40;;;;;;;0.40;0.30;;;8.10;99.90;;;;;;6116970;23;20180;-96
2021/01/08 04:37:11;;;;;;;0.47;0.23;;;8.20;99.90;;;;;;6117133;23;20204;-96
2021/01/08 04:39:43;;;;;;;0.30;0.23;;;8.30;99.90;;;;;;6135148;23;20189;-96
2021/01/08 04:42:13;;;;;;;0.77;0.30;;;8.30;99.90;;;;;;6145815;23;20178;-96
2021/01/08 04:44:45;;;;;;;0.30;0.10;;;8.30;99.90;;;;;;6146369;23;20173;-96
2021/01/08 04:47:18;;;;;;;0.20;0.20;;;8.30;99.90;;;;;;6122383;23;20264;-95
2021/01/08 04:49:49;;;;;;;0.27;0.27;;;8.40;99.90;;;;;;6146781;23;20163;-96
2021/01/08 04:52:22;;;;;;;0.20;0.20;;;8.30;99.90;;;;;;6125115;23;20198;-96
2021/01/08 04:54:55;;;;;;;0.27;0.20;;;8.30;99.90;;;;;;6147599;23;20189;-96
2021/01/08 04:57:29;;;;;;;1.47;0.30;;;8.30;99.90;;;;;;6148742;23;20170;-96
2021/01/08 05:00:01;;;;;;;1.50;0.30;;;8.30;99.90;;;;;;6149687;23;20256;-96
2021/01/08 05:02:33;;;;;;;1.13;0.40;;;8.40;99.90;;;;;;6146988;23;20228;-96
2021/01/08 05:05:03;;;;;;;0.67;0.40;;;8.50;99.90;;;;;;6146197;23;20210;-96
2021/01/08 05:07:34;;;;;;;0.83;0.40;;;8.40;99.90;;;;;;6146207;23;20207;-95
2021/01/08 05:10:10;;;;;;;0.40;0.20;;;8.40;99.90;;;;;;6146006;23;20237;-96
2021/01/08 05:12:48;;;;;;;0.50;0.30;;;8.40;99.90;;;;;;6146647;23;20184;-96
2021/01/08 05:15:25;;;;;;;0.20;0.20;;;8.50;99.90;;;;;;6122918;23;20230;-96
2021/01/08 05:17:57;;;;;;;3.47;0.30;;;8.60;99.90;;;;;;6147337;23;20174;-96
2021/01/08 05:20:30;;;;;;;0.23;0.13;;;8.70;99.90;;;;;;6148258;23;20175;-96
2021/01/08 05:23:02;;;;;;;0.20;0.20;;;8.70;99.90;;;;;;6122722;23;20229;-96
2021/01/08 05:25:35;;;;;;;0.33;0.30;;;8.70;99.90;;;;;;6120504;23;20166;-96
2021/01/08 05:28:10;;;;;;;0.27;0.27;;;8.60;99.90;;;;;;6146817;23;20253;-96
2021/01/08 05:30:43;;;;;;;0.20;0.20;;;8.50;99.90;;;;;;6148426;23;20197;-96
2021/01/08 05:33:17;;;;;;;0.20;0.20;;;8.60;99.90;;;;;;6147564;23;20169;-96
2021/01/08 05:35:51;;;;;;;0.20;0.20;;;8.70;99.90;;;;;;6146665;23;20167;-96
2021/01/08 05:38:23;;;;;;;0.20;0.20;;;8.70;99.90;;;;;;6145728;23;20188;-96
2021/01/08 05:41:04;;;;;;;0.10;0.10;;;8.70;99.90;;;;;;6145486;23;20179;-96
2021/01/08 05:43:44;;;;;;;0.20;0.20;;;8.70;99.90;;;;;;6149073;23;20201;-97
2021/01/08 05:46:22;;;;;;;0.10;0.10;;;8.80;99.90;;;;;;6148773;23;20245;-96
2021/01/08 05:49:01;;;;;;;0.10;0.10;;;9.00;99.90;;;;;;6123961;23;20232;-96
2021/01/08 05:51:33;;;;;;;0.27;0.27;;;9.10;99.90;;;;;;6149133;23;20194;-96
2021/01/08 05:54:26;;;;;;;0.20;0.13;;;9.10;99.90;;;;;;6151012;23;20209;-96
2021/01/08 06:13:21;;;;;;;3.93;0.20;;;9.10;99.90;;;;;;6107018;23;20242;-96
2021/01/08 06:15:55;;;;;;;0.40;0.13;;;9.00;99.90;;;;;;6093204;23;20170;-95
2021/01/08 06:18:30;;;;;;;0.10;0.10;;;9.00;99.90;;;;;;6116501;23;20189;-95
2021/01/08 06:21:07;;;;;;;0.20;0.10;;;9.00;99.90;;;;;;6115207;23;20181;-94
2021/01/08 06:23:39;;;;;;;0.20;0.20;;;9.00;99.90;;;;;;6116293;23;20209;-96
2021/01/08 06:26:14;;;;;;;0.20;0.10;;;8.90;99.90;;;;;;6115990;23;20279;-95
2021/01/08 06:28:55;;;;;;;0.50;0.20;;;9.00;99.90;;;;;;6117959;23;20202;-96
2021/01/08 06:31:37;;;;;;;0.73;0.20;;;8.90;99.90;;;;;;6119708;23;20170;-95
2021/01/08 06:34:21;;;;;;;0.10;0.10;;;9.10;99.90;;;;;;6117595;23;20213;-96
2021/01/08 06:37:14;;;;;;;0.10;0.10;;;9.00;99.90;;;;;;6118418;23;20210;-96
2021/01/08 06:39:52;;;;;;;0.40;0.20;;;9.00;99.90;;;;;;6116331;23;20194;-96
2021/01/08 06:42:31;;;;;;;0.10;0.10;;;9.00;99.90;;;;;;6121564;23;20183;-96
2021/01/08 06:45:05;;;;;;;0.10;0.10;;;8.90;99.90;;;;;;6120899;23;20224;-96
2021/01/08 06:47:49;;;;;;;0.20;0.10;;;8.90;99.90;;;;;;6098522;23;20181;-96
2021/01/08 06:50:21;;;;;;;0.13;0.10;;;8.90;99.90;;;;;;6123340;23;20178;-96
2021/01/08 06:52:56;;;;;;;0.20;0.20;;;9.00;99.90;;;;;;6122515;23;20221;-95
2021/01/08 06:55:28;;;;;;;0.30;0.20;;;9.10;99.90;;;;;;6099463;23;20170;-96
2021/01/08 06:58:00;;;;;;;0.20;0.20;;;9.10;99.90;;;;;;6122179;23;20193;-96
2021/01/08 07:00:35;;;;;;;0.67;0.10;;;9.10;99.90;;;;;;6098726;23;20166;-96
2021/01/08 07:03:10;;;;;;;0.20;0.20;;;9.10;99.90;;;;;;6122722;23;20221;-96
2021/01/08 07:05:49;;;;;;;3.93;0.20;;;9.10;99.90;;;;;;6118859;23;20185;-96
2021/01/08 07:08:35;;;;;;;0.10;0.10;;;9.10;99.90;;;;;;6123471;23;20170;-96
2021/01/08 07:14:07;;;;;;;0.20;0.20;;;9.20;99.90;;;;;;6117656;23;20202;-96
2021/01/08 07:16:46;;;;;;;0.10;0.10;;;9.20;99.90;;;;;;6117830;23;20179;-96
2021/01/08 07:19:24;;;;;;;2.17;0.20;;;9.30;99.90;;;;;;6118678;23;20206;-96
2021/01/08 07:21:56;;;;;;;0.17;0.17;;;9.40;99.90;;;;;;6115740;23;20181;-96
2021/01/08 07:24:31;;;;;;;0.50;0.20;;;9.40;99.90;;;;;;6117921;23;20199;-96
2021/01/08 07:27:20;;;;;;;0.20;0.20;;;9.40;99.90;;;;;;6118404;23;20200;-96
2021/01/08 07:29:54;;;;;;;0.60;0.10;;;9.30;99.90;;;;;;6115477;23;20193;-96
2021/01/08 07:32:40;;;;;;;0.10;0.10;;;9.40;99.90;;;;;;6116784;23;20170;-96
2021/01/08 07:35:20;;;;;;;0.20;0.20;;;9.40;99.90;;;;;;6070697;23;20251;-96
2021/01/08 07:38:00;;;;;;;0.87;0.20;;;9.40;99.90;;;;;;6092642;23;20177;-94
2021/01/08 07:40:37;;;;;;;0.20;0.20;;;9.40;99.90;;;;;;6115791;23;20177;-96
2021/01/08 07:43:09;;;;;;;0.20;0.20;;;9.40;99.90;;;;;;6117415;23;20222;-96
2021/01/08 07:45:54;;;;;;;0.10;0.10;;;9.30;99.90;;;;;;6119015;23;20506;-96
2021/01/08 07:48:28;;;;;;;0.23;0.23;;;9.50;99.90;;;;;;6117551;23;20174;-94
2021/01/08 07:51:01;;;;;;;0.50;0.30;;;9.50;99.90;;;;;;6114632;23;20195;-96
2021/01/08 07:53:49;;;;;;;0.10;0.10;;;9.50;99.90;;;;;;6118053;23;20617;-96
2021/01/08 07:56:23;;;;;;;0.10;0.10;;;9.40;99.90;;;;;;6116841;23;20179;-96
2021/01/08 07:59:00;;;;;;;0.10;0.10;;;9.50;99.90;;;;;;6094529;23;20205;-96
2021/01/08 08:01:35;;;;;;;1.60;0.10;;;9.40;99.90;;;;;;6119483;23;20187;-92
2021/01/08 08:04:11;;;;;;;0.30;0.10;;;9.60;99.90;;;;;;6115764;23;20756;-94
2021/01/08 08:06:45;;;;;;;0.13;0.10;;;9.50;99.90;;;;;;6114670;23;20174;-95
2021/01/08 08:09:18;;;;;;;0.23;0.10;;;9.60;99.90;;;;;;6115307;23;20683;-95
2021/01/08 08:11:49;;;;;;;0.10;0.10;;;9.50;99.90;;;;;;6115723;23;20195;-95
2021/01/08 08:14:21;;;;;;;0.07;0.07;;;9.60;99.90;;;;;;6116228;23;20210;-94
2021/01/08 08:16:53;;;;;;;0.20;0.20;;;9.60;99.90;;;;;;6119784;23;20175;-95
2021/01/08 08:22:00;;;;;;;0.30;0.10;;;9.50;99.90;;;;;;6150612;23;20268;-95
2021/01/08 08:24:31;;;;;;;0.20;0.10;;;9.40;99.90;;;;;;6150512;23;20238;-96
2021/01/08 08:27:01;;;;;;;0.20;0.20;;;9.50;99.90;;;;;;6148991;23;20213;-95
2021/01/08 08:29:32;;;;;;;0.10;0.10;;;9.50;99.90;;;;;;6147227;23;20210;-95
2021/01/08 08:32:04;;;;;;;0.17;0.17;;;9.50;99.90;;;;;;6147698;23;20178;-94
2021/01/08 08:34:35;;;;;;;0.10;0.10;;;9.50;99.90;;;;;;6145953;23;20182;-94
2021/01/08 08:37:10;;;;;;;0.10;0.10;;;9.50;99.90;;;;;;6146527;23;20182;-95
2021/01/08 08:39:41;;;;;;;0.27;0.10;;;9.50;99.90;;;;;;6144077;23;20188;-95
2021/01/08 08:42:20;;;;;;;0.10;0.10;;;9.50;99.90;;;;;;6123072;23;20177;-96
2021/01/08 08:44:58;;;;;;;0.20;0.10;;;9.50;99.90;;;;;;6124604;23;20256;-96
2021/01/08 08:47:29;;;;;;;0.20;0.20;;;9.60;99.90;;;;;;6148521;23;20166;-96
2021/01/08 08:50:20;;;;;;;0.20;0.20;;;9.80;99.90;;;;;;6149551;23;20258;-96
2021/01/08 08:52:55;;;;;;;0.13;0.13;;;9.70;99.90;;;;;;6123746;23;20202;-95
2021/01/08 08:55:38;;;;;;;0.33;0.20;;;9.60;99.90;;;;;;6147683;23;20173;-94
2021/01/08 08:58:11;;;;;;;0.37;0.23;;;9.70;99.90;;;;;;6148568;23;20201;-96
2021/01/08 09:00:46;;;;;;;0.20;0.20;;;9.70;99.90;;;;;;6148517;23;20213;-94
2021/01/08 09:03:23;;;;;;;0.70;0.30;;;9.80;99.90;;;;;;6149178;23;20205;-95
2021/01/08 09:06:20;;;;;;;0.10;0.10;;;9.80;99.90;;;;;;6150008;23;20182;-95
2021/01/08 09:08:54;;;;;;;0.37;0.23;;;9.70;99.90;;;;;;6149134;23;20158;-96
2021/01/08 09:11:34;;;;;;;0.10;0.10;;;9.80;99.90;;;;;;6148346;23;20226;-93
2021/01/08 09:14:15;;;;;;;0.10;0.10;;;9.70;99.90;;;;;;6148999;23;20177;-96
2021/01/08 09:16:50;;;;;;;0.93;0.30;;;9.60;99.90;;;;;;6126239;23;20198;-96
2021/01/08 09:19:34;;;;;;;0.10;0.10;;;9.60;99.90;;;;;;6148773;23;20184;-96
2021/01/08 09:22:07;;;;;;;0.40;0.20;;;9.60;99.90;;;;;;6148631;23;20186;-95
2021/01/08 09:24:43;;;;;;;0.10;0.10;;;9.70;99.90;;;;;;6123085;23;20204;-96
2021/01/08 09:27:17;;;;;;;0.17;0.17;;;9.80;99.90;;;;;;6148176;23;20174;-96
2021/01/08 09:29:48;;;;;;;0.33;0.10;;;9.80;99.90;;;;;;6147280;23;20209;-96
2021/01/08 09:32:32;;;;;;;0.27;0.27;;;9.70;99.90;;;;;;6147443;23;20182;-95
2021/01/08 09:35:05;;;;;;;0.10;0.10;;;9.70;99.90;;;;;;6145558;23;20185;-95
2021/01/08 09:37:40;;;;;;;0.20;0.20;;;9.70;99.90;;;;;;6144731;23;20184;-95
2021/01/08 09:40:17;;;;;;;0.10;0.10;;;9.70;99.90;;;;;;6145582;23;20177;-95
2021/01/08 09:42:49;;;;;;;0.60;0.20;;;9.70;99.90;;;;;;6120834;23;20207;-94
2021/01/08 09:45:25;;;;;;;0.30;0.20;;;9.60;99.90;;;;;;6145722;23;20171;-95
2021/01/08 09:47:56;;;;;;;0.20;0.20;;;9.60;99.90;;;;;;6144162;23;20228;-96
2021/01/08 09:50:29;;;;;;;0.10;0.10;;;9.60;99.90;;;;;;6119200;23;20206;-96
2021/01/08 09:53:02;;;;;;;0.47;0.20;;;9.60;99.90;;;;;;6144300;23;20188;-95
2021/01/08 09:55:34;;;;;;;0.50;0.20;;;9.70;99.90;;;;;;6146204;23;20249;-95
2021/01/08 09:58:05;;;;;;;0.40;0.20;;;9.60;99.90;;;;;;6143002;23;20169;-95
2021/01/08 10:00:38;;;;;;;0.10;0.10;;;9.50;99.90;;;;;;6143938;23;20166;-96
2021/01/08 10:03:20;;;;;;;1.13;0.20;;;9.60;99.90;;;;;;6142614;23;20213;-94
2021/01/08 10:05:51;;;;;;;0.10;0.10;;;9.60;99.90;;;;;;6119725;23;20257;-95
2021/01/08 10:08:23;;;;;;;0.10;0.10;;;9.50;99.90;;;;;;6144290;23;20214;-95
2021/01/08 10:10:57;;;;;;;0.20;0.20;;;9.60;99.90;;;;;;6144642;23;20185;-95
2021/01/08 10:13:29;;;;;;;0.17;0.10;;;9.60;99.90;;;;;;6144190;23;20177;-95
2021/01/08 10:16:08;;;;;;;1.23;0.20;;;9.60;99.90;;;;;;6144734;23;20171;-95
2021/01/08 10:18:39;;;;;;;0.10;0.10;;;9.70;99.90;;;;;;6118604;23;20244;-96
2021/01/08 10:21:13;;;;;;;0.10;0.10;;;9.50;99.90;;;;;;6145105;23;20253;-95
2021/01/08 10:23:45;;;;;;;0.10;0.10;;;9.50;99.90;;;;;;6144231;23;20200;-95
2021/01/08 10:26:20;;;;;;;0.10;0.10;;;9.50;99.90;;;;;;6119063;23;20201;-96
2021/01/08 10:28:51;;;;;;;0.13;0.13;;;9.50;99.90;;;;;;6144688;23;20185;-96
2021/01/08 10:31:23;;;;;;;0.20;0.10;;;9.40;99.90;;;;;;6144748;23;20178;-96
2021/01/08 10:33:54;;;;;;;0.43;0.10;;;9.40;99.90;;;;;;6143647;23;20171;-94
2021/01/08 10:36:25;;;;;;;0.10;0.10;;;9.30;99.90;;;;;;6144849;23;20201;-95
2021/01/08 10:38:56;;;;;;;0.17;0.17;;;9.50;99.90;;;;;;6148373;23;20211;-95
2021/01/08 10:41:28;;;;;;;0.20;0.20;;;9.60;99.90;;;;;;6150279;23;20184;-93
2021/01/08 10:43:59;;;;;;;0.10;0.10;;;9.60;99.90;;;;;;6149940;23;20241;-95
2021/01/08 10:46:30;;;;;;;0.10;0.10;;;9.70;99.90;;;;;;6147452;23;20191;-95
2021/01/08 10:49:01;;;;;;;0.10;0.10;;;9.90;99.90;;;;;;6147642;23;20178;-95
2021/01/08 10:51:32;;;;;;;0.10;0.10;;;9.90;99.90;;;;;;6146936;23;20224;-95
2021/01/08 10:54:04;;;;;;;0.20;0.20;;;10.00;99.90;;;;;;6096193;23;20191;-95
2021/01/08 10:56:36;;;;;;;0.10;0.10;;;10.00;99.90;;;;;;6119645;23;20206;-95
2021/01/08 10:59:11;;;;;;;0.20;0.20;;;10.00;99.90;;;;;;6144759;23;20173;-94
2021/01/08 11:01:42;;;;;;;0.50;0.30;;;10.00;99.90;;;;;;6144552;23;20177;-95
2021/01/08 11:04:14;;;;;;;0.10;0.10;;;10.00;99.90;;;;;;6119437;23;20189;-94
2021/01/08 11:06:46;;;;;;;0.70;0.30;;;10.00;99.90;;;;;;6144301;23;20159;-95
2021/01/08 11:09:16;;;;;;;0.30;0.23;;;10.10;99.90;;;;;;6143684;23;20214;-95
2021/01/08 11:11:48;;;;;;;0.83;0.30;;;10.00;99.90;;;;;;6143257;23;20178;-95
2021/01/08 11:14:19;;;;;;;0.10;0.10;;;9.90;99.90;;;;;;6143491;23;20189;-95
2021/01/08 11:16:50;;;;;;;0.20;0.20;;;9.80;99.90;;;;;;6143702;23;20170;-95
2021/01/08 11:19:21;;;;;;;0.60;0.33;;;9.50;99.90;;;;;;6118915;23;20226;-94
2021/01/08 11:21:54;;;;;;;1.00;0.20;;;9.30;99.90;;;;;;6118360;23;20202;-96
2021/01/08 11:24:25;;;;;;;0.27;0.20;;;9.20;99.90;;;;;;6143700;23;20217;-94
2021/01/08 11:26:57;;;;;;;0.60;0.27;;;9.00;99.90;;;;;;6143035;23;20213;-95
2021/01/08 11:29:28;;;;;;;0.10;0.10;;;8.90;99.90;;;;;;6143333;23;20174;-95
2021/01/08 11:31:58;;;;;;;0.50;0.20;;;8.80;99.90;;;;;;6144335;23;20185;-94
2021/01/08 11:34:30;;;;;;;0.10;0.10;;;8.70;99.90;;;;;;6144715;23;20256;-94
2021/01/08 11:37:01;;;;;;;0.20;0.20;;;8.60;99.90;;;;;;6119626;23;20198;-95
2021/01/08 11:39:48;;;;;;;0.20;0.20;;;8.50;99.90;;;;;;6143088;23;20184;-95
2021/01/08 11:42:20;;;;;;;0.33;0.20;;;8.40;99.90;;;;;;6119771;23;20233;-94
2021/01/08 11:44:53;;;;;;;0.10;0.10;;;8.40;99.90;;;;;;6144167;23;20205;-95
2021/01/08 11:47:24;;;;;;;1.50;0.10;;;8.30;99.90;;;;;;6096705;23;20185;-94
2021/01/08 11:49:55;;;;;;;0.17;0.10;;;8.30;99.90;;;;;;6145780;23;20177;-95
2021/01/08 11:52:26;;;;;;;0.20;0.20;;;8.20;99.90;;;;;;6144036;23;20170;-95
2021/01/08 11:54:57;;;;;;;0.30;0.30;;;8.20;99.90;;;;;;6144181;23;20174;-94
2021/01/08 11:57:29;;;;;;;0.10;0.10;;;8.20;99.90;;;;;;6143053;23;20232;-94
2021/01/08 12:00:01;;;;;;;0.20;0.20;;;8.30;99.90;;;;;;6118541;23;20194;-95
2021/01/08 12:02:32;;;;;;;1.17;0.23;;;8.40;99.90;;;;;;6142545;23;20192;-95
2021/01/08 12:05:03;;;;;;;0.10;0.10;;;8.50;99.90;;;;;;6143374;23;20209;-95
2021/01/08 12:07:34;;;;;;;1.70;0.10;;;8.50;99.90;;;;;;6142633;23;20182;-96
2021/01/08 12:10:06;;;;;;;0.13;0.13;;;8.50;99.90;;;;;;6143328;23;20198;-94
2021/01/08 12:12:40;;;;;;;0.20;0.20;;;8.50;99.90;;;;;;6117972;23;20192;-94
2021/01/08 12:15:12;;;;;;;0.10;0.10;;;8.60;99.90;;;;;;6143599;23;20181;-94
2021/01/08 12:17:43;;;;;;;0.10;0.10;;;8.60;99.90;;;;;;6117930;23;20161;-95
2021/01/08 12:20:15;;;;;;;0.10;0.10;;;8.50;99.90;;;;;;6144047;23;20182;-95
2021/01/08 12:22:46;;;;;;;0.20;0.20;;;8.50;99.90;;;;;;6143377;23;20184;-95
2021/01/08 12:25:17;;;;;;;0.10;0.10;;;8.50;99.90;;;;;;6144156;23;20244;-94
2021/01/08 12:27:50;;;;;;;0.10;0.10;;;8.50;99.90;;;;;;6143425;23;20182;-94
2021/01/08 12:30:21;;;;;;;0.10;0.10;;;8.50;99.90;;;;;;6144754;23;20201;-95
2021/01/08 12:32:52;;;;;;;0.10;0.10;;;8.60;99.90;;;;;;6118344;23;20176;-95
2021/01/08 12:35:23;;;;;;;0.23;0.17;;;8.60;99.90;;;;;;6143490;23;20178;-94
2021/01/08 12:37:54;;;;;;;0.40;0.20;;;8.60;99.90;;;;;;6143854;23;20248;-95
2021/01/08 12:40:28;;;;;;;0.57;0.10;;;8.60;99.90;;;;;;6144092;23;20170;-95
2021/01/08 12:43:22;;;;;;;0.10;0.10;;;8.70;99.90;;;;;;6144363;23;20178;-93
2021/01/08 12:45:53;;;;;;;0.20;0.20;;;8.70;99.90;;;;;;6147655;23;20170;-96
2021/01/08 12:48:24;;;;;;;0.20;0.20;;;8.90;99.90;;;;;;6150613;23;20174;-96
2021/01/08 12:50:55;;;;;;;0.20;0.20;;;8.80;99.90;;;;;;6151204;23;20217;-95
2021/01/08 12:53:25;;;;;;;0.50;0.40;;;8.70;99.90;;;;;;6151897;23;20190;-95
2021/01/08 12:55:56;;;;;;;0.67;0.53;;;8.60;99.90;;;;;;6151377;23;20217;-95
2021/01/08 12:58:31;;;;;;;0.90;0.70;;;8.40;99.90;;;;;;6150679;23;20205;-95
2021/01/08 13:01:04;;;;;;;1.47;0.80;;;8.40;99.90;;;;;;6152181;23;20236;-93
2021/01/08 13:03:34;;;;;;;1.27;0.60;;;8.40;99.90;;;;;;6151600;23;20237;-94
2021/01/08 13:06:07;;;;;;;1.07;0.90;;;8.40;99.90;;;;;;6149619;23;20179;-95
2021/01/08 13:08:38;;;;;;;1.17;0.50;;;8.30;99.90;;;;;;6119686;23;20178;-95
2021/01/08 13:11:09;;;;;;;1.10;1.00;;;8.30;99.90;;;;;;6143442;23;20185;-94
2021/01/08 13:13:44;;;;;;;1.03;0.93;;;8.20;99.90;;;;;;6144908;23;20169;-94
2021/01/08 13:16:20;;;;;;;1.27;0.97;;;8.20;99.90;;;;;;6145604;23;20240;-95
2021/01/08 13:18:52;;;;;;;0.80;0.60;;;8.10;99.90;;;;;;6143476;23;20191;-96
2021/01/08 13:21:23;;;;;;;1.27;0.60;;;8.10;99.90;;;;;;6144827;23;20192;-95
2021/01/08 13:23:53;;;;;;;0.70;0.50;;;8.00;99.90;;;;;;6119830;23;20194;-95
2021/01/08 13:26:26;;;;;;;0.70;0.70;;;8.00;99.90;;;;;;6144293;23;20193;-94
2021/01/08 13:28:59;;;;;;;0.90;0.90;;;7.90;99.90;;;;;;6144552;23;20188;-95
2021/01/08 13:31:30;;;;;;;1.40;1.00;;;7.90;99.90;;;;;;6119767;23;20178;-95
2021/01/08 13:34:03;;;;;;;1.00;0.90;;;7.90;99.90;;;;;;6143782;23;20173;-95
2021/01/08 13:36:36;;;;;;;0.70;0.70;;;7.90;99.90;;;;;;6118597;23;20170;-96
2021/01/08 13:39:10;;;;;;;1.13;0.67;;;7.90;99.90;;;;;;6143610;23;20170;-95
2021/01/08 13:41:40;;;;;;;1.43;0.30;;;7.90;99.90;;;;;;6144168;23;20184;-95
2021/01/08 13:44:13;;;;;;;1.17;0.70;;;7.80;99.90;;;;;;6143387;23;20226;-96
2021/01/08 13:46:51;;;;;;;3.60;0.70;;;7.80;99.90;;;;;;6142752;23;20314;-95
2021/01/08 13:49:24;;;;;;;1.80;0.63;;;7.80;99.90;;;;;;6142949;23;20213;-94
2021/01/08 13:52:06;;;;;;;1.97;0.70;;;7.80;99.90;;;;;;6145121;23;20180;-95
2021/01/08 13:54:38;;;;;;;0.97;0.70;;;7.80;99.90;;;;;;6148301;23;20218;-95
2021/01/08 13:57:10;;;;;;;2.47;0.63;;;7.70;99.90;;;;;;6149323;23;20170;-95
2021/01/08 13:59:42;;;;;;;3.63;0.77;;;7.70;99.90;;;;;;6148829;23;20196;-94
2021/01/08 14:02:13;;;;;;;1.10;0.57;;;7.70;99.90;;;;;;6149040;23;20173;-95
2021/01/08 14:04:43;;;;;;;1.47;0.50;;;7.70;99.90;;;;;;6149568;23;20200;-96